sensor_id;sensor_type;location;lat;lon;timestamp;P1;durP1;ratioP1;P2;durP2;ratioP2
5225;SDS011;2632;51.666;7.146;2023-07-31T00:01:19;2.73;;;1.50;;
5225;SDS011;2632;51.666;7.146;2023-07-31T00:03:46;1.70;;;1.20;;
5225;SDS011;2632;51.666;7.146;2023-07-31T00:06:13;2.87;;;1.10;;
5225;SDS011;2632;51.666;7.146;2023-07-31T00:08:40;1.63;;;1.20;;
5225;SDS011;2632;51.666;7.146;2023-07-31T00:11:06;1.40;;;1.30;;
5225;SDS011;2632;51.666;7.146;2023-07-31T00:13:33;1.97;;;1.20;;
5225;SDS011;2632;51.666;7.146;2023-07-31T00:15:59;1.67;;;1.20;;
5225;SDS011;2632;51.666;7.146;2023-07-31T00:18:26;1.40;;;1.30;;
5225;SDS011;2632;51.666;7.146;2023-07-31T00:20:53;2.50;;;1.50;;
5225;SDS011;2632;51.666;7.146;2023-07-31T00:23:19;1.20;;;1.10;;
5225;SDS011;2632;51.666;7.146;2023-07-31T00:25:46;1.23;;;1.10;;
5225;SDS011;2632;51.666;7.146;2023-07-31T00:28:13;3.03;;;1.00;;
5225;SDS011;2632;51.666;7.146;2023-07-31T00:30:39;1.20;;;1.00;;
5225;SDS011;2632;51.666;7.146;2023-07-31T00:33:06;1.80;;;0.90;;
5225;SDS011;2632;51.666;7.146;2023-07-31T00:35:33;2.47;;;1.40;;
5225;SDS011;2632;51.666;7.146;2023-07-31T00:37:59;2.10;;;1.47;;
5225;SDS011;2632;51.666;7.146;2023-07-31T00:40:26;1.50;;;1.40;;
5225;SDS011;2632;51.666;7.146;2023-07-31T00:42:53;3.20;;;2.50;;
5225;SDS011;2632;51.666;7.146;2023-07-31T00:45:19;5.40;;;3.00;;
5225;SDS011;2632;51.666;7.146;2023-07-31T00:47:49;3.43;;;3.07;;
5225;SDS011;2632;51.666;7.146;2023-07-31T00:50:16;6.43;;;4.17;;
5225;SDS011;2632;51.666;7.146;2023-07-31T00:52:43;7.53;;;5.20;;
5225;SDS011;2632;51.666;7.146;2023-07-31T00:55:10;7.17;;;5.20;;
5225;SDS011;2632;51.666;7.146;2023-07-31T00:57:37;9.90;;;6.50;;
5225;SDS011;2632;51.666;7.146;2023-07-31T01:00:06;8.43;;;5.53;;
5225;SDS011;2632;51.666;7.146;2023-07-31T01:02:39;13.10;;;7.30;;
5225;SDS011;2632;51.666;7.146;2023-07-31T01:05:35;16.10;;;7.20;;
5225;SDS011;2632;51.666;7.146;2023-07-31T01:10:53;13.20;;;6.53;;
5225;SDS011;2632;51.666;7.146;2023-07-31T01:13:25;17.10;;;7.10;;
5225;SDS011;2632;51.666;7.146;2023-07-31T01:15:55;16.03;;;6.80;;
5225;SDS011;2632;51.666;7.146;2023-07-31T01:18:22;16.17;;;7.43;;
5225;SDS011;2632;51.666;7.146;2023-07-31T01:20:52;15.40;;;6.47;;
5225;SDS011;2632;51.666;7.146;2023-07-31T01:23:40;18.40;;;6.33;;
5225;SDS011;2632;51.666;7.146;2023-07-31T01:26:30;18.37;;;5.80;;
5225;SDS011;2632;51.666;7.146;2023-07-31T01:29:08;18.80;;;6.00;;
5225;SDS011;2632;51.666;7.146;2023-07-31T01:31:44;16.60;;;5.90;;
5225;SDS011;2632;51.666;7.146;2023-07-31T01:34:16;11.73;;;5.40;;
5225;SDS011;2632;51.666;7.146;2023-07-31T01:36:44;13.97;;;5.30;;
5225;SDS011;2632;51.666;7.146;2023-07-31T01:39:11;16.47;;;4.90;;
5225;SDS011;2632;51.666;7.146;2023-07-31T01:41:37;14.70;;;5.70;;
5225;SDS011;2632;51.666;7.146;2023-07-31T01:44:04;18.93;;;5.20;;
5225;SDS011;2632;51.666;7.146;2023-07-31T01:46:31;13.03;;;5.77;;
5225;SDS011;2632;51.666;7.146;2023-07-31T01:48:58;19.13;;;6.60;;
5225;SDS011;2632;51.666;7.146;2023-07-31T01:51:24;13.97;;;5.73;;
5225;SDS011;2632;51.666;7.146;2023-07-31T01:53:51;15.83;;;6.87;;
5225;SDS011;2632;51.666;7.146;2023-07-31T01:56:18;20.33;;;6.63;;
5225;SDS011;2632;51.666;7.146;2023-07-31T01:58:44;13.67;;;5.93;;
5225;SDS011;2632;51.666;7.146;2023-07-31T02:01:11;15.57;;;6.63;;
5225;SDS011;2632;51.666;7.146;2023-07-31T02:03:37;12.93;;;5.80;;
5225;SDS011;2632;51.666;7.146;2023-07-31T02:06:04;13.73;;;5.80;;
5225;SDS011;2632;51.666;7.146;2023-07-31T02:08:31;16.93;;;5.87;;
5225;SDS011;2632;51.666;7.146;2023-07-31T02:10:57;12.90;;;5.37;;
5225;SDS011;2632;51.666;7.146;2023-07-31T02:13:24;16.27;;;6.77;;
5225;SDS011;2632;51.666;7.146;2023-07-31T02:15:51;10.10;;;6.10;;
5225;SDS011;2632;51.666;7.146;2023-07-31T02:18:17;14.73;;;6.10;;
5225;SDS011;2632;51.666;7.146;2023-07-31T02:20:48;12.83;;;5.90;;
5225;SDS011;2632;51.666;7.146;2023-07-31T02:23:16;16.93;;;5.47;;
5225;SDS011;2632;51.666;7.146;2023-07-31T02:25:44;10.27;;;5.27;;
5225;SDS011;2632;51.666;7.146;2023-07-31T02:28:11;20.90;;;5.93;;
5225;SDS011;2632;51.666;7.146;2023-07-31T02:30:38;17.23;;;4.90;;
5225;SDS011;2632;51.666;7.146;2023-07-31T02:33:05;10.60;;;4.83;;
5225;SDS011;2632;51.666;7.146;2023-07-31T02:35:32;11.70;;;5.27;;
5225;SDS011;2632;51.666;7.146;2023-07-31T02:37:58;10.50;;;4.90;;
5225;SDS011;2632;51.666;7.146;2023-07-31T02:40:25;15.53;;;5.10;;
5225;SDS011;2632;51.666;7.146;2023-07-31T02:42:52;14.10;;;4.53;;
5225;SDS011;2632;51.666;7.146;2023-07-31T02:45:18;14.53;;;4.70;;
5225;SDS011;2632;51.666;7.146;2023-07-31T02:47:45;13.33;;;4.80;;
5225;SDS011;2632;51.666;7.146;2023-07-31T02:50:12;13.10;;;4.33;;
5225;SDS011;2632;51.666;7.146;2023-07-31T02:52:38;10.73;;;4.50;;
5225;SDS011;2632;51.666;7.146;2023-07-31T02:55:05;9.57;;;4.40;;
5225;SDS011;2632;51.666;7.146;2023-07-31T02:57:32;11.33;;;4.50;;
5225;SDS011;2632;51.666;7.146;2023-07-31T02:59:59;18.27;;;4.93;;
5225;SDS011;2632;51.666;7.146;2023-07-31T03:02:26;11.63;;;4.20;;
5225;SDS011;2632;51.666;7.146;2023-07-31T03:04:52;13.90;;;4.77;;
5225;SDS011;2632;51.666;7.146;2023-07-31T03:07:19;10.37;;;3.73;;
5225;SDS011;2632;51.666;7.146;2023-07-31T03:09:46;10.10;;;3.90;;
5225;SDS011;2632;51.666;7.146;2023-07-31T03:12:12;13.43;;;4.77;;
5225;SDS011;2632;51.666;7.146;2023-07-31T03:14:39;12.70;;;4.17;;
5225;SDS011;2632;51.666;7.146;2023-07-31T03:17:06;15.87;;;4.43;;
5225;SDS011;2632;51.666;7.146;2023-07-31T03:19:32;15.50;;;4.63;;
5225;SDS011;2632;51.666;7.146;2023-07-31T03:21:59;9.97;;;4.57;;
5225;SDS011;2632;51.666;7.146;2023-07-31T03:24:26;13.70;;;4.20;;
5225;SDS011;2632;51.666;7.146;2023-07-31T03:26:54;11.70;;;4.40;;
5225;SDS011;2632;51.666;7.146;2023-07-31T03:29:20;19.30;;;4.20;;
5225;SDS011;2632;51.666;7.146;2023-07-31T03:31:50;10.80;;;4.63;;
5225;SDS011;2632;51.666;7.146;2023-07-31T03:34:16;14.87;;;5.00;;
5225;SDS011;2632;51.666;7.146;2023-07-31T03:36:43;12.13;;;5.90;;
5225;SDS011;2632;51.666;7.146;2023-07-31T03:39:10;11.37;;;4.73;;
5225;SDS011;2632;51.666;7.146;2023-07-31T03:41:37;12.90;;;3.83;;
5225;SDS011;2632;51.666;7.146;2023-07-31T03:44:03;20.00;;;4.37;;
5225;SDS011;2632;51.666;7.146;2023-07-31T03:46:30;15.60;;;4.00;;
5225;SDS011;2632;51.666;7.146;2023-07-31T03:48:57;9.43;;;4.40;;
5225;SDS011;2632;51.666;7.146;2023-07-31T03:51:23;15.23;;;4.30;;
5225;SDS011;2632;51.666;7.146;2023-07-31T03:53:50;12.77;;;4.37;;
5225;SDS011;2632;51.666;7.146;2023-07-31T03:56:17;9.63;;;4.10;;
5225;SDS011;2632;51.666;7.146;2023-07-31T03:58:43;13.10;;;4.40;;
5225;SDS011;2632;51.666;7.146;2023-07-31T04:01:10;14.60;;;5.00;;
5225;SDS011;2632;51.666;7.146;2023-07-31T04:03:37;13.83;;;4.83;;
5225;SDS011;2632;51.666;7.146;2023-07-31T04:06:04;13.57;;;4.93;;
5225;SDS011;2632;51.666;7.146;2023-07-31T04:08:30;14.70;;;4.47;;
5225;SDS011;2632;51.666;7.146;2023-07-31T04:10:57;9.73;;;4.30;;
5225;SDS011;2632;51.666;7.146;2023-07-31T04:13:23;13.23;;;4.30;;
5225;SDS011;2632;51.666;7.146;2023-07-31T04:15:53;9.43;;;4.27;;
5225;SDS011;2632;51.666;7.146;2023-07-31T04:18:20;11.20;;;4.30;;
5225;SDS011;2632;51.666;7.146;2023-07-31T04:20:47;11.50;;;4.80;;
5225;SDS011;2632;51.666;7.146;2023-07-31T04:23:13;9.90;;;4.73;;
5225;SDS011;2632;51.666;7.146;2023-07-31T04:25:40;14.33;;;5.00;;
5225;SDS011;2632;51.666;7.146;2023-07-31T04:28:07;12.33;;;4.80;;
5225;SDS011;2632;51.666;7.146;2023-07-31T04:30:34;9.90;;;5.37;;
5225;SDS011;2632;51.666;7.146;2023-07-31T04:33:00;11.10;;;4.27;;
5225;SDS011;2632;51.666;7.146;2023-07-31T04:35:27;11.00;;;4.83;;
5225;SDS011;2632;51.666;7.146;2023-07-31T04:37:55;10.70;;;4.50;;
5225;SDS011;2632;51.666;7.146;2023-07-31T04:40:21;11.20;;;4.63;;
5225;SDS011;2632;51.666;7.146;2023-07-31T04:42:48;15.33;;;4.40;;
5225;SDS011;2632;51.666;7.146;2023-07-31T04:45:15;10.77;;;4.50;;
5225;SDS011;2632;51.666;7.146;2023-07-31T04:47:41;11.10;;;4.30;;
5225;SDS011;2632;51.666;7.146;2023-07-31T04:50:08;10.17;;;4.77;;
5225;SDS011;2632;51.666;7.146;2023-07-31T04:52:35;11.90;;;3.80;;
5225;SDS011;2632;51.666;7.146;2023-07-31T04:55:02;12.53;;;4.03;;
5225;SDS011;2632;51.666;7.146;2023-07-31T04:57:29;12.17;;;4.40;;
5225;SDS011;2632;51.666;7.146;2023-07-31T04:59:55;16.13;;;3.90;;
5225;SDS011;2632;51.666;7.146;2023-07-31T05:02:22;8.40;;;4.23;;
5225;SDS011;2632;51.666;7.146;2023-07-31T05:04:50;13.93;;;4.70;;
5225;SDS011;2632;51.666;7.146;2023-07-31T05:07:17;10.20;;;4.40;;
5225;SDS011;2632;51.666;7.146;2023-07-31T05:09:44;10.47;;;4.30;;
5225;SDS011;2632;51.666;7.146;2023-07-31T05:12:10;14.07;;;4.50;;
5225;SDS011;2632;51.666;7.146;2023-07-31T05:14:37;14.00;;;4.80;;
5225;SDS011;2632;51.666;7.146;2023-07-31T05:17:03;8.90;;;4.50;;
5225;SDS011;2632;51.666;7.146;2023-07-31T05:19:30;9.00;;;4.60;;
5225;SDS011;2632;51.666;7.146;2023-07-31T05:21:57;7.83;;;4.50;;
5225;SDS011;2632;51.666;7.146;2023-07-31T05:24:24;12.07;;;4.70;;
5225;SDS011;2632;51.666;7.146;2023-07-31T05:26:50;12.90;;;4.90;;
5225;SDS011;2632;51.666;7.146;2023-07-31T05:29:17;13.40;;;5.40;;
5225;SDS011;2632;51.666;7.146;2023-07-31T05:31:44;8.07;;;5.03;;
5225;SDS011;2632;51.666;7.146;2023-07-31T05:34:10;12.97;;;4.70;;
5225;SDS011;2632;51.666;7.146;2023-07-31T05:36:37;13.70;;;4.80;;
5225;SDS011;2632;51.666;7.146;2023-07-31T05:39:04;12.53;;;4.70;;
5225;SDS011;2632;51.666;7.146;2023-07-31T05:41:35;11.23;;;4.90;;
5225;SDS011;2632;51.666;7.146;2023-07-31T05:44:02;12.67;;;4.73;;
5225;SDS011;2632;51.666;7.146;2023-07-31T05:46:28;12.23;;;4.80;;
5225;SDS011;2632;51.666;7.146;2023-07-31T05:48:55;12.40;;;5.40;;
5225;SDS011;2632;51.666;7.146;2023-07-31T05:51:22;11.30;;;5.30;;
5225;SDS011;2632;51.666;7.146;2023-07-31T05:53:48;8.77;;;4.70;;
5225;SDS011;2632;51.666;7.146;2023-07-31T05:56:15;11.47;;;4.37;;
5225;SDS011;2632;51.666;7.146;2023-07-31T05:58:41;9.97;;;4.73;;
5225;SDS011;2632;51.666;7.146;2023-07-31T06:01:08;11.50;;;5.00;;
5225;SDS011;2632;51.666;7.146;2023-07-31T06:03:35;10.87;;;5.13;;
5225;SDS011;2632;51.666;7.146;2023-07-31T06:06:02;16.67;;;5.07;;
5225;SDS011;2632;51.666;7.146;2023-07-31T06:08:28;8.63;;;4.43;;
5225;SDS011;2632;51.666;7.146;2023-07-31T06:10:55;8.87;;;5.27;;
5225;SDS011;2632;51.666;7.146;2023-07-31T06:13:22;10.13;;;4.73;;
5225;SDS011;2632;51.666;7.146;2023-07-31T06:15:48;11.47;;;4.90;;
5225;SDS011;2632;51.666;7.146;2023-07-31T06:18:15;8.47;;;4.67;;
5225;SDS011;2632;51.666;7.146;2023-07-31T06:20:41;9.90;;;5.93;;
5225;SDS011;2632;51.666;7.146;2023-07-31T06:23:08;11.03;;;6.03;;
5225;SDS011;2632;51.666;7.146;2023-07-31T06:25:35;15.17;;;6.70;;
5225;SDS011;2632;51.666;7.146;2023-07-31T06:28:01;9.90;;;6.20;;
5225;SDS011;2632;51.666;7.146;2023-07-31T06:30:28;14.50;;;6.47;;
5225;SDS011;2632;51.666;7.146;2023-07-31T06:32:55;10.93;;;5.40;;
5225;SDS011;2632;51.666;7.146;2023-07-31T06:35:21;15.20;;;6.60;;
5225;SDS011;2632;51.666;7.146;2023-07-31T06:37:48;9.30;;;5.63;;
5225;SDS011;2632;51.666;7.146;2023-07-31T06:40:15;12.77;;;6.37;;
5225;SDS011;2632;51.666;7.146;2023-07-31T06:42:42;13.10;;;5.97;;
5225;SDS011;2632;51.666;7.146;2023-07-31T06:45:10;14.83;;;6.77;;
5225;SDS011;2632;51.666;7.146;2023-07-31T06:47:36;12.50;;;7.10;;
5225;SDS011;2632;51.666;7.146;2023-07-31T06:50:03;12.07;;;6.37;;
5225;SDS011;2632;51.666;7.146;2023-07-31T06:52:31;15.03;;;6.60;;
5225;SDS011;2632;51.666;7.146;2023-07-31T06:55:01;12.33;;;6.37;;
5225;SDS011;2632;51.666;7.146;2023-07-31T06:57:29;11.07;;;5.93;;
5225;SDS011;2632;51.666;7.146;2023-07-31T06:59:56;12.40;;;6.13;;
5225;SDS011;2632;51.666;7.146;2023-07-31T07:02:23;10.40;;;5.83;;
5225;SDS011;2632;51.666;7.146;2023-07-31T07:04:49;13.47;;;5.60;;
5225;SDS011;2632;51.666;7.146;2023-07-31T07:07:17;12.37;;;6.00;;
5225;SDS011;2632;51.666;7.146;2023-07-31T07:09:43;10.83;;;6.03;;
5225;SDS011;2632;51.666;7.146;2023-07-31T07:12:10;11.40;;;6.10;;
5225;SDS011;2632;51.666;7.146;2023-07-31T07:14:37;11.50;;;6.60;;
5225;SDS011;2632;51.666;7.146;2023-07-31T07:17:03;9.87;;;5.30;;
5225;SDS011;2632;51.666;7.146;2023-07-31T07:19:30;12.40;;;6.27;;
5225;SDS011;2632;51.666;7.146;2023-07-31T07:21:57;12.93;;;6.43;;
5225;SDS011;2632;51.666;7.146;2023-07-31T07:24:26;8.90;;;6.67;;
5225;SDS011;2632;51.666;7.146;2023-07-31T07:26:52;13.40;;;6.70;;
5225;SDS011;2632;51.666;7.146;2023-07-31T07:29:19;11.37;;;6.17;;
5225;SDS011;2632;51.666;7.146;2023-07-31T07:31:45;9.50;;;5.80;;
5225;SDS011;2632;51.666;7.146;2023-07-31T07:34:12;8.93;;;5.67;;
5225;SDS011;2632;51.666;7.146;2023-07-31T07:36:39;8.80;;;5.30;;
5225;SDS011;2632;51.666;7.146;2023-07-31T07:39:06;9.90;;;4.97;;
5225;SDS011;2632;51.666;7.146;2023-07-31T07:41:34;8.80;;;5.17;;
5225;SDS011;2632;51.666;7.146;2023-07-31T07:44:01;8.17;;;4.93;;
5225;SDS011;2632;51.666;7.146;2023-07-31T07:46:27;8.47;;;5.03;;
5225;SDS011;2632;51.666;7.146;2023-07-31T07:48:54;10.37;;;5.50;;
5225;SDS011;2632;51.666;7.146;2023-07-31T07:51:21;6.37;;;4.97;;
5225;SDS011;2632;51.666;7.146;2023-07-31T07:53:47;8.97;;;5.77;;
5225;SDS011;2632;51.666;7.146;2023-07-31T07:56:14;7.30;;;5.30;;
5225;SDS011;2632;51.666;7.146;2023-07-31T07:58:40;8.33;;;4.93;;
5225;SDS011;2632;51.666;7.146;2023-07-31T08:01:07;9.00;;;5.53;;
5225;SDS011;2632;51.666;7.146;2023-07-31T08:03:34;7.97;;;4.97;;
5225;SDS011;2632;51.666;7.146;2023-07-31T08:06:01;10.27;;;5.17;;
5225;SDS011;2632;51.666;7.146;2023-07-31T08:08:28;9.70;;;4.90;;
5225;SDS011;2632;51.666;7.146;2023-07-31T08:10:55;7.53;;;4.57;;
5225;SDS011;2632;51.666;7.146;2023-07-31T08:13:21;7.87;;;4.80;;
5225;SDS011;2632;51.666;7.146;2023-07-31T08:15:48;8.10;;;4.70;;
5225;SDS011;2632;51.666;7.146;2023-07-31T08:18:15;5.80;;;4.10;;
5225;SDS011;2632;51.666;7.146;2023-07-31T08:20:43;8.90;;;4.20;;
5225;SDS011;2632;51.666;7.146;2023-07-31T08:23:10;5.20;;;4.23;;
5225;SDS011;2632;51.666;7.146;2023-07-31T08:25:37;9.47;;;4.10;;
5225;SDS011;2632;51.666;7.146;2023-07-31T08:28:04;6.73;;;3.93;;
5225;SDS011;2632;51.666;7.146;2023-07-31T08:30:32;3.47;;;2.77;;
5225;SDS011;2632;51.666;7.146;2023-07-31T08:33:02;6.17;;;3.90;;
5225;SDS011;2632;51.666;7.146;2023-07-31T08:35:28;6.73;;;3.50;;
5225;SDS011;2632;51.666;7.146;2023-07-31T08:37:55;4.50;;;3.13;;
5225;SDS011;2632;51.666;7.146;2023-07-31T08:40:22;8.57;;;3.33;;
5225;SDS011;2632;51.666;7.146;2023-07-31T08:42:49;5.63;;;3.40;;
5225;SDS011;2632;51.666;7.146;2023-07-31T08:45:17;4.23;;;3.43;;
5225;SDS011;2632;51.666;7.146;2023-07-31T08:47:45;5.10;;;3.30;;
5225;SDS011;2632;51.666;7.146;2023-07-31T08:50:16;4.73;;;3.50;;
5225;SDS011;2632;51.666;7.146;2023-07-31T08:52:47;6.63;;;3.40;;
5225;SDS011;2632;51.666;7.146;2023-07-31T08:55:16;4.20;;;3.60;;
5225;SDS011;2632;51.666;7.146;2023-07-31T08:57:43;5.13;;;3.90;;
5225;SDS011;2632;51.666;7.146;2023-07-31T09:00:10;5.97;;;4.23;;
5225;SDS011;2632;51.666;7.146;2023-07-31T09:02:41;5.80;;;4.20;;
5225;SDS011;2632;51.666;7.146;2023-07-31T09:05:10;6.27;;;3.70;;
5225;SDS011;2632;51.666;7.146;2023-07-31T09:07:37;20.57;;;4.97;;
5225;SDS011;2632;51.666;7.146;2023-07-31T09:10:05;9.70;;;5.00;;
5225;SDS011;2632;51.666;7.146;2023-07-31T09:12:35;8.27;;;5.40;;
5225;SDS011;2632;51.666;7.146;2023-07-31T09:15:03;6.37;;;4.40;;
5225;SDS011;2632;51.666;7.146;2023-07-31T09:17:31;4.60;;;3.80;;
5225;SDS011;2632;51.666;7.146;2023-07-31T09:20:14;5.20;;;3.37;;
5225;SDS011;2632;51.666;7.146;2023-07-31T09:22:43;9.27;;;4.40;;
5225;SDS011;2632;51.666;7.146;2023-07-31T09:25:14;4.30;;;3.50;;
5225;SDS011;2632;51.666;7.146;2023-07-31T09:27:49;3.73;;;3.13;;
5225;SDS011;2632;51.666;7.146;2023-07-31T09:30:20;7.00;;;3.50;;
5225;SDS011;2632;51.666;7.146;2023-07-31T09:32:48;6.40;;;3.43;;
5225;SDS011;2632;51.666;7.146;2023-07-31T09:35:29;6.83;;;3.30;;
5225;SDS011;2632;51.666;7.146;2023-07-31T09:37:57;4.27;;;3.27;;
5225;SDS011;2632;51.666;7.146;2023-07-31T09:40:46;3.90;;;3.50;;
5225;SDS011;2632;51.666;7.146;2023-07-31T09:43:19;4.33;;;3.37;;
5225;SDS011;2632;51.666;7.146;2023-07-31T09:45:47;4.30;;;3.40;;
5225;SDS011;2632;51.666;7.146;2023-07-31T09:48:15;5.60;;;3.80;;
5225;SDS011;2632;51.666;7.146;2023-07-31T09:50:43;4.20;;;3.70;;
5225;SDS011;2632;51.666;7.146;2023-07-31T09:53:12;6.83;;;4.80;;
5225;SDS011;2632;51.666;7.146;2023-07-31T09:55:39;6.67;;;4.53;;
5225;SDS011;2632;51.666;7.146;2023-07-31T09:58:07;7.53;;;4.60;;
5225;SDS011;2632;51.666;7.146;2023-07-31T10:00:35;8.10;;;5.40;;
5225;SDS011;2632;51.666;7.146;2023-07-31T10:03:06;5.60;;;4.40;;
5225;SDS011;2632;51.666;7.146;2023-07-31T10:08:09;7.03;;;3.90;;
5225;SDS011;2632;51.666;7.146;2023-07-31T10:10:38;5.90;;;3.50;;
5225;SDS011;2632;51.666;7.146;2023-07-31T10:13:08;5.13;;;3.60;;
5225;SDS011;2632;51.666;7.146;2023-07-31T10:15:35;5.30;;;3.80;;
5225;SDS011;2632;51.666;7.146;2023-07-31T10:18:02;7.40;;;3.87;;
5225;SDS011;2632;51.666;7.146;2023-07-31T10:20:33;4.40;;;4.00;;
5225;SDS011;2632;51.666;7.146;2023-07-31T10:23:00;4.80;;;4.20;;
5225;SDS011;2632;51.666;7.146;2023-07-31T10:25:27;7.13;;;4.00;;
5225;SDS011;2632;51.666;7.146;2023-07-31T10:27:55;5.13;;;4.00;;
5225;SDS011;2632;51.666;7.146;2023-07-31T10:30:27;5.63;;;4.10;;
5225;SDS011;2632;51.666;7.146;2023-07-31T10:32:56;7.97;;;3.90;;
5225;SDS011;2632;51.666;7.146;2023-07-31T10:35:23;6.10;;;4.10;;
5225;SDS011;2632;51.666;7.146;2023-07-31T10:37:50;3.73;;;3.43;;
5225;SDS011;2632;51.666;7.146;2023-07-31T10:40:19;6.90;;;3.70;;
5225;SDS011;2632;51.666;7.146;2023-07-31T10:42:52;4.50;;;3.40;;
5225;SDS011;2632;51.666;7.146;2023-07-31T10:45:32;6.67;;;3.90;;
5225;SDS011;2632;51.666;7.146;2023-07-31T10:48:04;4.97;;;4.00;;
5225;SDS011;2632;51.666;7.146;2023-07-31T10:50:48;5.90;;;4.27;;
5225;SDS011;2632;51.666;7.146;2023-07-31T10:53:25;5.50;;;4.70;;
5225;SDS011;2632;51.666;7.146;2023-07-31T10:56:03;6.20;;;4.60;;
5225;SDS011;2632;51.666;7.146;2023-07-31T10:58:30;6.07;;;5.47;;
5225;SDS011;2632;51.666;7.146;2023-07-31T11:00:59;6.47;;;4.87;;
5225;SDS011;2632;51.666;7.146;2023-07-31T11:03:27;7.77;;;5.13;;
5225;SDS011;2632;51.666;7.146;2023-07-31T11:06:12;7.50;;;5.27;;
5225;SDS011;2632;51.666;7.146;2023-07-31T11:08:44;6.20;;;4.77;;
5225;SDS011;2632;51.666;7.146;2023-07-31T11:11:16;10.60;;;5.87;;
5225;SDS011;2632;51.666;7.146;2023-07-31T11:13:46;7.80;;;5.77;;
5225;SDS011;2632;51.666;7.146;2023-07-31T11:16:19;9.30;;;6.03;;
5225;SDS011;2632;51.666;7.146;2023-07-31T11:18:50;6.97;;;5.30;;
5225;SDS011;2632;51.666;7.146;2023-07-31T11:21:20;7.50;;;5.13;;
5225;SDS011;2632;51.666;7.146;2023-07-31T11:23:49;9.53;;;5.40;;
5225;SDS011;2632;51.666;7.146;2023-07-31T11:26:18;7.80;;;5.90;;
5225;SDS011;2632;51.666;7.146;2023-07-31T11:28:48;6.53;;;4.90;;
5225;SDS011;2632;51.666;7.146;2023-07-31T11:31:16;7.10;;;5.07;;
5225;SDS011;2632;51.666;7.146;2023-07-31T11:33:43;7.10;;;5.43;;
5225;SDS011;2632;51.666;7.146;2023-07-31T11:36:14;6.80;;;5.00;;
5225;SDS011;2632;51.666;7.146;2023-07-31T11:38:46;8.80;;;5.20;;
5225;SDS011;2632;51.666;7.146;2023-07-31T11:41:14;9.10;;;4.60;;
5225;SDS011;2632;51.666;7.146;2023-07-31T11:43:42;12.80;;;5.60;;
5225;SDS011;2632;51.666;7.146;2023-07-31T11:46:09;7.27;;;4.73;;
5225;SDS011;2632;51.666;7.146;2023-07-31T11:48:36;8.10;;;5.00;;
5225;SDS011;2632;51.666;7.146;2023-07-31T11:51:04;6.40;;;4.70;;
5225;SDS011;2632;51.666;7.146;2023-07-31T11:56:06;5.30;;;4.27;;
5225;SDS011;2632;51.666;7.146;2023-07-31T11:58:35;6.27;;;4.27;;
5225;SDS011;2632;51.666;7.146;2023-07-31T12:01:02;10.63;;;4.43;;
5225;SDS011;2632;51.666;7.146;2023-07-31T12:03:31;6.00;;;4.30;;
5225;SDS011;2632;51.666;7.146;2023-07-31T12:05:58;7.13;;;4.13;;
5225;SDS011;2632;51.666;7.146;2023-07-31T12:08:25;5.70;;;3.80;;
5225;SDS011;2632;51.666;7.146;2023-07-31T12:10:52;4.63;;;3.70;;
5225;SDS011;2632;51.666;7.146;2023-07-31T12:13:24;9.87;;;3.90;;
5225;SDS011;2632;51.666;7.146;2023-07-31T12:15:56;5.10;;;3.80;;
5225;SDS011;2632;51.666;7.146;2023-07-31T12:18:24;6.00;;;3.77;;
5225;SDS011;2632;51.666;7.146;2023-07-31T12:20:57;6.57;;;4.10;;
5225;SDS011;2632;51.666;7.146;2023-07-31T12:23:26;5.40;;;4.50;;
5225;SDS011;2632;51.666;7.146;2023-07-31T12:26:11;9.50;;;4.90;;
5225;SDS011;2632;51.666;7.146;2023-07-31T12:28:49;7.63;;;5.50;;
5225;SDS011;2632;51.666;7.146;2023-07-31T12:31:27;6.13;;;5.10;;
5225;SDS011;2632;51.666;7.146;2023-07-31T12:33:55;5.70;;;4.60;;
5225;SDS011;2632;51.666;7.146;2023-07-31T12:36:23;5.30;;;4.60;;
5225;SDS011;2632;51.666;7.146;2023-07-31T12:38:50;5.57;;;4.83;;
5225;SDS011;2632;51.666;7.146;2023-07-31T12:41:18;8.07;;;4.80;;
5225;SDS011;2632;51.666;7.146;2023-07-31T12:43:45;5.33;;;4.33;;
5225;SDS011;2632;51.666;7.146;2023-07-31T12:46:12;7.10;;;4.10;;
5225;SDS011;2632;51.666;7.146;2023-07-31T12:48:39;6.67;;;4.00;;
5225;SDS011;2632;51.666;7.146;2023-07-31T12:51:06;5.07;;;3.90;;
5225;SDS011;2632;51.666;7.146;2023-07-31T12:53:34;6.10;;;3.80;;
5225;SDS011;2632;51.666;7.146;2023-07-31T12:56:01;5.80;;;3.80;;
5225;SDS011;2632;51.666;7.146;2023-07-31T12:58:28;4.10;;;3.50;;
5225;SDS011;2632;51.666;7.146;2023-07-31T13:00:55;4.10;;;3.20;;
5225;SDS011;2632;51.666;7.146;2023-07-31T13:03:21;4.87;;;3.17;;
5225;SDS011;2632;51.666;7.146;2023-07-31T13:05:48;8.03;;;4.73;;
5225;SDS011;2632;51.666;7.146;2023-07-31T13:08:16;4.40;;;3.43;;
5225;SDS011;2632;51.666;7.146;2023-07-31T13:10:43;4.80;;;3.17;;
5225;SDS011;2632;51.666;7.146;2023-07-31T13:13:10;5.13;;;2.80;;
5225;SDS011;2632;51.666;7.146;2023-07-31T13:15:37;4.53;;;2.87;;
5225;SDS011;2632;51.666;7.146;2023-07-31T13:18:03;4.30;;;3.13;;
5225;SDS011;2632;51.666;7.146;2023-07-31T13:20:30;4.77;;;3.20;;
5225;SDS011;2632;51.666;7.146;2023-07-31T13:22:57;6.70;;;2.97;;
5225;SDS011;2632;51.666;7.146;2023-07-31T13:25:23;4.63;;;2.77;;
5225;SDS011;2632;51.666;7.146;2023-07-31T13:27:50;4.50;;;2.70;;
5225;SDS011;2632;51.666;7.146;2023-07-31T13:30:17;5.30;;;3.50;;
5225;SDS011;2632;51.666;7.146;2023-07-31T13:32:44;7.07;;;3.17;;
5225;SDS011;2632;51.666;7.146;2023-07-31T13:35:10;4.07;;;3.10;;
5225;SDS011;2632;51.666;7.146;2023-07-31T13:37:38;3.93;;;2.97;;
5225;SDS011;2632;51.666;7.146;2023-07-31T13:40:05;7.13;;;3.47;;
5225;SDS011;2632;51.666;7.146;2023-07-31T13:42:32;3.33;;;2.77;;
5225;SDS011;2632;51.666;7.146;2023-07-31T13:44:59;7.20;;;3.50;;
5225;SDS011;2632;51.666;7.146;2023-07-31T13:47:27;8.17;;;3.23;;
5225;SDS011;2632;51.666;7.146;2023-07-31T13:49:54;4.03;;;3.00;;
5225;SDS011;2632;51.666;7.146;2023-07-31T13:52:21;4.00;;;3.60;;
5225;SDS011;2632;51.666;7.146;2023-07-31T13:54:48;9.10;;;4.30;;
5225;SDS011;2632;51.666;7.146;2023-07-31T13:57:14;6.63;;;4.17;;
5225;SDS011;2632;51.666;7.146;2023-07-31T13:59:41;5.40;;;4.60;;
5225;SDS011;2632;51.666;7.146;2023-07-31T14:02:08;8.43;;;4.57;;
5225;SDS011;2632;51.666;7.146;2023-07-31T14:04:34;6.53;;;4.90;;
5225;SDS011;2632;51.666;7.146;2023-07-31T14:07:01;6.50;;;4.13;;
5225;SDS011;2632;51.666;7.146;2023-07-31T14:09:29;7.43;;;4.70;;
5225;SDS011;2632;51.666;7.146;2023-07-31T14:11:56;10.73;;;4.60;;
5225;SDS011;2632;51.666;7.146;2023-07-31T14:14:22;6.47;;;4.27;;
5225;SDS011;2632;51.666;7.146;2023-07-31T14:16:49;6.20;;;4.63;;
5225;SDS011;2632;51.666;7.146;2023-07-31T14:19:16;8.40;;;4.30;;
5225;SDS011;2632;51.666;7.146;2023-07-31T14:21:43;5.10;;;4.60;;
5225;SDS011;2632;51.666;7.146;2023-07-31T14:24:22;9.60;;;5.00;;
5225;SDS011;2632;51.666;7.146;2023-07-31T14:26:50;8.30;;;5.20;;
5225;SDS011;2632;51.666;7.146;2023-07-31T14:29:16;6.33;;;4.90;;
5225;SDS011;2632;51.666;7.146;2023-07-31T14:31:43;6.73;;;5.03;;
5225;SDS011;2632;51.666;7.146;2023-07-31T14:34:10;8.13;;;5.07;;
5225;SDS011;2632;51.666;7.146;2023-07-31T14:36:37;5.67;;;4.50;;
5225;SDS011;2632;51.666;7.146;2023-07-31T14:39:04;8.03;;;4.80;;
5225;SDS011;2632;51.666;7.146;2023-07-31T14:41:31;5.87;;;4.33;;
5225;SDS011;2632;51.666;7.146;2023-07-31T14:43:59;7.20;;;4.70;;
5225;SDS011;2632;51.666;7.146;2023-07-31T14:46:26;5.73;;;4.10;;
5225;SDS011;2632;51.666;7.146;2023-07-31T14:48:53;9.03;;;4.60;;
5225;SDS011;2632;51.666;7.146;2023-07-31T14:51:19;4.83;;;3.77;;
5225;SDS011;2632;51.666;7.146;2023-07-31T14:53:46;5.67;;;3.80;;
5225;SDS011;2632;51.666;7.146;2023-07-31T14:56:13;5.57;;;3.80;;
5225;SDS011;2632;51.666;7.146;2023-07-31T14:58:40;7.00;;;3.97;;
5225;SDS011;2632;51.666;7.146;2023-07-31T15:01:06;5.83;;;3.83;;
5225;SDS011;2632;51.666;7.146;2023-07-31T15:03:33;7.10;;;4.40;;
5225;SDS011;2632;51.666;7.146;2023-07-31T15:06:00;11.63;;;4.10;;
5225;SDS011;2632;51.666;7.146;2023-07-31T15:08:26;9.10;;;4.50;;
5225;SDS011;2632;51.666;7.146;2023-07-31T15:10:54;10.93;;;4.37;;
5225;SDS011;2632;51.666;7.146;2023-07-31T15:13:23;6.13;;;3.93;;
5225;SDS011;2632;51.666;7.146;2023-07-31T15:15:50;8.67;;;4.00;;
5225;SDS011;2632;51.666;7.146;2023-07-31T15:18:17;7.67;;;4.30;;
5225;SDS011;2632;51.666;7.146;2023-07-31T15:20:44;5.20;;;4.10;;
5225;SDS011;2632;51.666;7.146;2023-07-31T15:23:11;5.77;;;4.20;;